Time;durP1;ratioP1;P1;durP2;ratioP2;P2;SDS_P1;SDS_P2;PMS_P1;PMS_P2;Temp;Humidity;BMP_temperature;BMP_pressure;BME280_temperature;BME280_humidity;BME280_pressure;Samples;Min_cycle;Max_cycle;Signal;HPM_P1;HPM_P2
2024/01/26 00:01:52;;;;;;;33.85;14.70;;;;;;;;;;5072920;28;20039;-68
2024/01/26 00:04:18;;;;;;;31.65;15.10;;;;;;;;;;5054954;28;20067;-69
2024/01/26 00:06:45;;;;;;;29.67;14.15;;;;;;;;;;5054766;28;20397;-68
2024/01/26 00:09:11;;;;;;;28.88;13.10;;;;;;;;;;5076671;28;20070;-69
2024/01/26 00:11:38;;;;;;;27.20;13.75;;;;;;;;;;5074318;28;20433;-68
2024/01/26 00:14:04;;;;;;;24.10;12.80;;;;;;;;;;5071905;28;20075;-68
2024/01/26 00:16:30;;;;;;;25.33;12.95;;;;;;;;;;5090975;28;20032;-68
2024/01/26 00:18:56;;;;;;;28.52;12.88;;;;;;;;;;5091575;28;20040;-69
2024/01/26 00:21:22;;;;;;;24.30;12.02;;;;;;;;;;5082011;28;20079;-68
2024/01/26 00:23:50;;;;;;;21.67;12.70;;;;;;;;;;5071506;28;20048;-68
2024/01/26 00:26:16;;;;;;;21.85;11.20;;;;;;;;;;5072379;28;20098;-69
2024/01/26 00:28:42;;;;;;;23.15;11.07;;;;;;;;;;5071420;28;20044;-69
2024/01/26 00:31:08;;;;;;;19.88;11.10;;;;;;;;;;5071234;28;20094;-69
2024/01/26 00:33:34;;;;;;;17.40;10.38;;;;;;;;;;5071291;28;20091;-68
2024/01/26 00:36:00;;;;;;;19.10;10.45;;;;;;;;;;5084191;28;20064;-68
2024/01/26 00:38:26;;;;;;;17.20;10.70;;;;;;;;;;5071078;28;20076;-68
2024/01/26 00:40:52;;;;;;;20.75;11.02;;;;;;;;;;5071002;28;20040;-68
2024/01/26 00:43:19;;;;;;;22.00;11.00;;;;;;;;;;5086467;28;20044;-68
2024/01/26 00:45:45;;;;;;;18.02;10.50;;;;;;;;;;5094696;28;20039;-68
2024/01/26 00:48:11;;;;;;;18.50;10.18;;;;;;;;;;5096066;28;20044;-68
2024/01/26 00:50:37;;;;;;;21.02;10.45;;;;;;;;;;5092398;28;20044;-69
2024/01/26 00:53:03;;;;;;;20.60;11.18;;;;;;;;;;5091292;28;20480;-68
2024/01/26 00:55:30;;;;;;;20.88;10.90;;;;;;;;;;5075793;28;20043;-68
2024/01/26 00:57:59;;;;;;;20.33;10.48;;;;;;;;;;5079101;28;20047;-68
2024/01/26 01:00:26;;;;;;;19.33;10.93;;;;;;;;;;5094596;28;20050;-68
2024/01/26 01:02:53;;;;;;;20.92;10.48;;;;;;;;;;5084412;28;20036;-68
2024/01/26 01:05:20;;;;;;;18.10;10.05;;;9.00;99.90;;;;;;5074403;28;20049;-68
2024/01/26 01:07:46;;;;;;;16.67;10.65;;;;;;;;;;5057467;28;20043;-68
2024/01/26 01:10:13;;;;;;;16.52;9.32;;;;;;;;;;5074275;28;20481;-68
2024/01/26 01:12:40;;;;;;;16.45;10.55;;;8.90;99.90;;;;;;5074544;28;20044;-68
2024/01/26 01:15:11;;;;;;;20.00;10.38;;;;;;;;;;5086661;28;20048;-68
2024/01/26 01:17:37;;;;;;;17.10;9.45;;;;;;;;;;5074360;28;20116;-69
2024/01/26 01:20:04;;;;;;;16.45;9.88;;;;;;;;;;5074115;28;20044;-68
2024/01/26 01:22:30;;;;;;;14.77;9.40;;;;;;;;;;5075524;28;20072;-69
2024/01/26 01:24:57;;;;;;;12.48;8.57;;;;;;;;;;5084084;28;20044;-68
2024/01/26 01:27:23;;;;;;;15.27;8.63;;;;;;;;;;5074982;28;20488;-68
2024/01/26 01:29:49;;;;;;;17.80;9.70;;;;;;;;;;5066285;28;20400;-68
2024/01/26 01:32:15;;;;;;;16.30;9.07;;;;;;;;;;5092636;28;20396;-69
2024/01/26 01:34:43;;;;;;;15.27;9.43;;;;;;;;;;5076494;28;20117;-69
2024/01/26 01:37:09;;;;;;;16.42;9.13;;;;;;;;;;5074102;28;20400;-69
2024/01/26 01:39:35;;;;;;;13.57;9.02;;;;;;;;;;5088879;28;20047;-68
2024/01/26 01:42:02;;;;;;;13.52;8.40;;;;;;;;;;5093765;28;20044;-69
2024/01/26 01:44:28;;;;;;;14.93;8.52;;;;;;;;;;5079216;28;20044;-69
2024/01/26 01:46:54;;;;;;;15.57;8.43;;;;;;;;;;5074121;28;20041;-69
2024/01/26 01:49:20;;;;;;;13.60;8.23;;;;;;;;;;5073243;28;20044;-68
2024/01/26 01:51:48;;;;;;;15.57;8.48;;;;;;;;;;5073431;28;20048;-69
2024/01/26 01:54:14;;;;;;;15.35;7.80;;;;;;;;;;5073336;28;20082;-69
2024/01/26 01:56:42;;;;;;;13.13;8.27;;;8.80;99.90;;;;;;5073307;28;20110;-68
2024/01/26 01:59:09;;;;;;;11.75;8.57;;;;;;;;;;5056592;28;20040;-68
2024/01/26 02:01:35;;;;;;;15.65;8.55;;;;;;;;;;5073324;28;20041;-68
2024/01/26 02:04:04;;;;;;;13.00;8.75;;;;;;;;;;5073056;28;20177;-69
2024/01/26 02:06:30;;;;;;;13.02;8.30;;;;;;;;;;5084003;28;20097;-68
2024/01/26 02:08:56;;;;;;;12.73;8.70;;;;;;;;;;5091033;28;20365;-68
2024/01/26 02:11:23;;;;;;;14.20;8.65;;;;;;;;;;5072965;28;20051;-68
2024/01/26 02:13:49;;;;;;;13.30;9.25;;;;;;;;;;5074392;28;20077;-69
2024/01/26 02:16:15;;;;;;;15.60;9.07;;;;;;;;;;5074200;28;20120;-68
2024/01/26 02:18:41;;;;;;;17.13;9.75;;;;;;;;;;5073010;28;20045;-68
2024/01/26 02:21:07;;;;;;;17.98;9.90;;;9.70;99.90;;;;;;5072483;28;20386;-69
2024/01/26 02:23:33;;;;;;;17.25;10.07;;;;;;;;;;5072734;28;20044;-68
2024/01/26 02:25:59;;;;;;;14.88;10.02;;;;;;;;;;5063442;28;20044;-69
2024/01/26 02:28:25;;;;;;;14.98;9.82;;;;;;;;;;5092750;28;20407;-68
2024/01/26 02:30:51;;;;;;;19.08;10.25;;;;;;;;;;5079044;28;20048;-69
2024/01/26 02:33:17;;;;;;;16.00;10.38;;;;;;;;;;5072673;28;20036;-68
2024/01/26 02:35:44;;;;;;;17.75;11.25;;;;;;;;;;5081185;28;20476;-69
2024/01/26 02:38:10;;;;;;;19.02;11.65;;;;;;;;;;5077081;28;20503;-69
2024/01/26 02:40:36;;;;;;;18.45;11.77;;;;;;;;;;5073485;28;20435;-69
2024/01/26 02:43:02;;;;;;;20.80;13.02;;;;;;;;;;5074677;28;20040;-69
2024/01/26 02:45:28;;;;;;;20.67;12.38;;;;;;;;;;5075996;28;20037;-68
2024/01/26 02:47:55;;;;;;;23.30;13.82;;;;;;;;;;5056937;28;20046;-68
2024/01/26 02:50:21;;;;;;;24.27;14.38;;;;;;;;;;5088865;28;20033;-68
2024/01/26 02:52:47;;;;;;;25.60;15.05;;;;;;;;;;5073316;28;20493;-68
2024/01/26 02:55:13;;;;;;;20.63;14.05;;;;;;;;;;5073227;28;20111;-68
2024/01/26 02:57:39;;;;;;;24.75;15.20;;;;;;;;;;5073509;28;20176;-69
2024/01/26 03:00:07;;;;;;;26.25;15.70;;;;;;;;;;5073203;28;20044;-68
2024/01/26 03:02:33;;;;;;;25.30;15.63;;;;;;;;;;5072273;28;20123;-69
2024/01/26 03:05:00;;;;;;;27.40;15.38;;;;;;;;;;5056834;28;20119;-68
2024/01/26 03:07:26;;;;;;;29.30;15.23;;;;;;;;;;5071653;28;20052;-68
2024/01/26 03:09:52;;;;;;;29.50;15.38;;;;;;;;;;5073064;28;20077;-68
2024/01/26 03:12:18;;;;;;;25.25;14.77;;;;;;;;;;5067969;28;20032;-69
2024/01/26 03:14:44;;;;;;;27.63;15.15;;;;;;;;;;5088647;28;20033;-69
2024/01/26 03:17:10;;;;;;;30.50;15.45;;;;;;;;;;5077888;28;20503;-68
2024/01/26 03:19:36;;;;;;;28.55;16.08;;;;;;;;;;5073051;28;20040;-68
2024/01/26 03:22:02;;;;;;;33.72;16.13;;;;;;;;;;5072632;28;20136;-69
2024/01/26 03:24:29;;;;;;;28.90;15.48;;;;;;;;;;5076087;28;20415;-68
2024/01/26 03:26:55;;;;;;;27.40;15.57;;;;;;;;;;5089406;28;20078;-68
2024/01/26 03:29:22;;;;;;;30.90;16.33;;;;;;;;;;5084616;28;20085;-69
2024/01/26 03:31:48;;;;;;;32.60;17.50;;;;;;;;;;5089574;28;20075;-69
2024/01/26 03:34:14;;;;;;;33.97;16.75;;;;;;;;;;5086377;28;20044;-69
2024/01/26 03:36:40;;;;;;;31.95;16.77;;;;;;;;;;5071106;28;20037;-68
2024/01/26 03:39:09;;;;;;;31.73;16.85;;;;;;;;;;5071770;28;20075;-68
2024/01/26 03:41:39;;;;;;;33.50;17.15;;;;;;;;;;5071421;28;20389;-68
2024/01/26 03:44:05;;;;;;;34.17;17.00;;;;;;;;;;5072796;28;20048;-69
2024/01/26 03:46:31;;;;;;;35.38;17.27;;;;;;;;;;5071593;28;20052;-69
2024/01/26 03:48:57;;;;;;;35.05;16.58;;;;;;;;;;5072462;28;20056;-68
2024/01/26 03:51:23;;;;;;;32.05;16.58;;;;;;;;;;5073909;28;20044;-69
2024/01/26 03:53:49;;;;;;;33.45;16.33;;;;;;;;;;5072708;28;20381;-68
2024/01/26 03:56:15;;;;;;;34.47;16.67;;;;;;;;;;5072912;28;20071;-68
2024/01/26 03:58:44;;;;;;;32.58;17.45;;;;;;;;;;5071528;28;20055;-68
2024/01/26 04:01:10;;;;;;;33.08;17.02;;;;;;;;;;5071390;28;20044;-69
2024/01/26 04:03:36;;;;;;;32.63;17.35;;;;;;;;;;5072947;28;20174;-69
2024/01/26 04:06:03;;;;;;;33.58;16.15;;;;;;;;;;5072907;28;20037;-68
2024/01/26 04:08:29;;;;;;;30.02;16.95;;;;;;;;;;5071331;28;20055;-69
2024/01/26 04:10:56;;;;;;;31.52;17.77;;;;;;;;;;5055672;28;20079;-69
2024/01/26 04:13:22;;;;;;;39.17;16.75;;;;;;;;;;5078107;28;20032;-68
2024/01/26 04:15:48;;;;;;;30.58;17.02;;;;;;;;;;5096496;28;20040;-69
2024/01/26 04:18:14;;;;;;;38.28;17.98;;;;;;;;;;5076405;28;20047;-69
2024/01/26 04:20:40;;;;;;;36.95;16.88;;;;;;;;;;5058434;28;20040;-69
2024/01/26 04:23:06;;;;;;;30.85;17.60;;;;;;;;;;5077452;28;20049;-68
2024/01/26 04:25:32;;;;;;;29.17;16.98;;;;;;;;;;5075145;28;20052;-69
2024/01/26 04:27:58;;;;;;;32.80;16.45;;;;;;;;;;5075114;28;20051;-69
2024/01/26 04:30:24;;;;;;;36.03;18.02;;;;;;;;;;5095121;28;20040;-69
2024/01/26 04:32:50;;;;;;;33.50;16.67;;;;;;;;;;5076675;28;20032;-68
2024/01/26 04:35:16;;;;;;;32.95;17.20;;;;;;;;;;5076280;28;20036;-68
2024/01/26 04:37:42;;;;;;;28.17;15.98;;;;;;;;;;5084637;28;20036;-68
2024/01/26 04:40:10;;;;;;;31.35;17.05;;;;;;;;;;5077475;28;20051;-69
2024/01/26 04:42:36;;;;;;;25.23;14.70;;;;;;;;;;5077376;28;20442;-69
2024/01/26 04:45:03;;;;;;;29.65;16.92;;;;;;;;;;5074574;28;20044;-68
2024/01/26 04:47:29;;;;;;;27.73;14.85;;;;;;;;;;5076061;28;20037;-69
2024/01/26 04:49:55;;;;;;;25.75;14.98;;;;;;;;;;5075441;28;20036;-69
2024/01/26 04:52:21;;;;;;;30.20;15.45;;;;;;;;;;5074955;28;20098;-69
2024/01/26 04:54:48;;;;;;;23.73;14.95;;;;;;;;;;5075399;28;20044;-69
2024/01/26 04:57:14;;;;;;;21.45;14.85;;;;;;;;;;5075729;28;20036;-69
2024/01/26 04:59:40;;;;;;;26.30;14.02;;;;;;;;;;5074136;28;20036;-69
2024/01/26 05:02:06;;;;;;;24.73;14.45;;;;;;;;;;5074606;28;20110;-69
2024/01/26 05:04:32;;;;;;;24.50;14.32;;;;;;;;;;5075374;28;20033;-69
2024/01/26 05:06:58;;;;;;;20.45;13.60;;;;;;;;;;5057812;28;20108;-69
2024/01/26 05:09:24;;;;;;;26.10;14.52;;;;;;;;;;5058203;28;20072;-69
2024/01/26 05:11:51;;;;;;;29.00;14.23;;;;;;;;;;5076782;28;20032;-69
2024/01/26 05:14:17;;;;;;;28.52;15.40;;;;;;;;;;5093059;28;20391;-69
2024/01/26 05:16:44;;;;;;;26.98;15.95;;;;;;;;;;5081839;28;20032;-69
2024/01/26 05:19:10;;;;;;;30.33;16.20;;;;;;;;;;5075273;28;20037;-69
2024/01/26 05:21:36;;;;;;;30.85;16.85;;;;;;;;;;5083283;28;20105;-69
2024/01/26 05:24:02;;;;;;;29.50;16.50;;;;;;;;;;5094478;28;20518;-69
2024/01/26 05:26:28;;;;;;;30.75;17.00;;;;;;;;;;5077068;28;20086;-69
2024/01/26 05:28:54;;;;;;;25.35;15.70;;;;;;;;;;5073502;28;20044;-69
2024/01/26 05:31:21;;;;;;;25.08;15.60;;;;;;;;;;5076315;28;20044;-69
2024/01/26 05:33:47;;;;;;;22.88;15.10;;;;;;;;;;5074990;28;20045;-68
2024/01/26 05:36:13;;;;;;;24.80;14.82;;;;;;;;;;5074662;28;20040;-69
2024/01/26 05:38:39;;;;;;;24.90;14.70;;;;;;;;;;5074104;28;20043;-69
2024/01/26 05:41:05;;;;;;;24.52;14.85;;;;;;;;;;5074240;28;20518;-69
2024/01/26 05:43:31;;;;;;;20.23;13.30;;;;;;;;;;5075588;28;20052;-69
2024/01/26 05:45:57;;;;;;;20.00;13.80;;;;;;;;;;5075274;28;20048;-70
2024/01/26 05:48:24;;;;;;;24.73;13.32;;;;;;;;;;5053720;28;20041;-69
2024/01/26 05:50:50;;;;;;;21.75;14.18;;;;;;;;;;5073707;28;20530;-70
2024/01/26 05:53:16;;;;;;;20.92;14.00;;;;;;;;;;5074937;28;20076;-70
2024/01/26 05:55:42;;;;;;;20.38;13.35;;;;;;;;;;5076173;28;20032;-69
2024/01/26 05:58:08;;;;;;;23.60;13.60;;;;;;;;;;5082115;28;20500;-69
2024/01/26 06:00:34;;;;;;;19.77;14.10;;;;;;;;;;5073264;28;20036;-69
2024/01/26 06:03:01;;;;;;;22.23;14.05;;;;;;;;;;5075977;28;20044;-70
2024/01/26 06:05:27;;;;;;;26.17;14.43;;;;;;;;;;5074168;28;20131;-69
2024/01/26 06:07:53;;;;;;;20.40;14.32;;;;;;;;;;5074232;28;20501;-70
2024/01/26 06:10:19;;;;;;;22.42;14.35;;;;;;;;;;5072846;28;20495;-69
2024/01/26 06:12:45;;;;;;;23.92;13.40;;;;;;;;;;5086353;28;20426;-69
2024/01/26 06:15:11;;;;;;;18.08;13.77;;;;;;;;;;5084433;28;20037;-69
2024/01/26 06:17:38;;;;;;;22.00;14.20;;;;;;;;;;5084840;28;20036;-70
2024/01/26 06:20:05;;;;;;;22.35;13.70;;;;;;;;;;5086011;28;20045;-70
2024/01/26 06:22:31;;;;;;;17.67;12.93;;;;;;;;;;5073957;28;20094;-70
2024/01/26 06:24:57;;;;;;;24.02;13.30;;;;;;;;;;5089074;28;20091;-70
2024/01/26 06:27:23;;;;;;;18.67;12.45;;;;;;;;;;5074365;28;20047;-70
2024/01/26 06:29:49;;;;;;;21.42;12.20;;;;;;;;;;5073860;28;20040;-70
2024/01/26 06:32:18;;;;;;;17.27;11.70;;;;;;;;;;5057038;28;20481;-71
2024/01/26 06:34:45;;;;;;;16.75;12.13;;;;;;;;;;5081021;28;20059;-70
2024/01/26 06:37:12;;;;;;;19.42;12.20;;;;;;;;;;5074478;28;20105;-70
2024/01/26 06:39:38;;;;;;;18.08;12.00;;;;;;;;;;5072845;28;20068;-70
2024/01/26 06:42:04;;;;;;;17.90;12.13;;;10.60;99.90;;;;;;5073297;28;20032;-70
2024/01/26 06:44:31;;;;;;;17.92;12.43;;;;;;;;;;5056017;28;20039;-70
2024/01/26 06:46:57;;;;;;;16.63;11.30;;;;;;;;;;5072712;28;20071;-70
2024/01/26 06:49:23;;;;;;;16.52;11.32;;;;;;;;;;5073481;28;20480;-70
2024/01/26 06:51:49;;;;;;;18.70;11.60;;;;;;;;;;5085991;28;20435;-70
2024/01/26 06:54:15;;;;;;;16.77;11.48;;;;;;;;;;5075729;28;20032;-70
2024/01/26 06:56:41;;;;;;;15.00;10.80;;;;;;;;;;5097272;28;20150;-70
2024/01/26 06:59:07;;;;;;;13.82;10.60;;;;;;;;;;5072148;28;20045;-70
2024/01/26 07:01:34;;;;;;;15.25;11.18;;;;;;;;;;5089094;28;20044;-70
2024/01/26 07:04:00;;;;;;;16.67;11.45;;;;;;;;;;5088884;28;20086;-70
2024/01/26 07:06:26;;;;;;;14.02;10.65;;;;;;;;;;5088317;28;20119;-69
2024/01/26 07:08:52;;;;;;;15.48;11.98;;;;;;;;;;5089942;28;20133;-70
2024/01/26 07:11:20;;;;;;;15.93;11.43;;;;;;;;;;5089140;28;20040;-69
2024/01/26 07:13:46;;;;;;;13.75;10.45;;;;;;;;;;5072381;28;20040;-70
2024/01/26 07:16:12;;;;;;;15.50;11.75;;;;;;;;;;5086480;28;20120;-69
2024/01/26 07:18:38;;;;;;;16.23;11.48;;;;;;;;;;5072289;28;20035;-70
2024/01/26 07:21:08;;;;;;;20.13;11.90;;;;;;;;;;5058990;28;20192;-70
2024/01/26 07:23:34;;;;;;;15.45;11.55;;;;;;;;;;5072381;28;20051;-69
2024/01/26 07:26:01;;;;;;;16.80;11.75;;;;;;;;;;5071851;28;20040;-69
2024/01/26 07:28:27;;;;;;;17.70;11.90;;;;;;;;;;5072941;28;20040;-69
2024/01/26 07:30:53;;;;;;;21.05;12.20;;;;;;;;;;5065555;28;20400;-70
2024/01/26 07:33:19;;;;;;;17.55;11.98;;;;;;;;;;5090318;28;20085;-70
2024/01/26 07:35:45;;;;;;;19.10;11.10;;;;;;;;;;5082486;28;20032;-70
2024/01/26 07:38:11;;;;;;;16.30;8.93;;;;;;;;;;5071421;28;20492;-70
2024/01/26 07:40:37;;;;;;;16.65;8.80;;;;;;;;;;5079802;28;20036;-69
2024/01/26 07:43:04;;;;;;;14.65;8.55;;;10.40;99.90;;;;;;5072481;28;20068;-70
2024/01/26 07:45:30;;;;;;;15.82;8.40;;;;;;;;;;5080586;28;20082;-70
2024/01/26 07:47:56;;;;;;;14.52;8.07;;;;;;;;;;5084364;28;20124;-69
2024/01/26 07:50:22;;;;;;;16.67;8.10;;;;;;;;;;5071283;28;20045;-69
2024/01/26 07:52:48;;;;;;;25.55;9.30;;;;;;;;;;5055938;28;20038;-69
2024/01/26 07:55:14;;;;;;;17.48;7.95;;;;;;;;;;5071423;28;20071;-69
2024/01/26 07:57:40;;;;;;;16.42;7.40;;;;;;;;;;5088388;28;20052;-69
2024/01/26 08:00:10;;;;;;;15.57;7.30;;;;;;;;;;5071377;28;20048;-69
2024/01/26 08:02:36;;;;;;;18.70;6.93;;;;;;;;;;5072476;28;20087;-70
2024/01/26 08:05:02;;;;;;;16.70;6.10;;;;;;;;;;5072479;28;20353;-70
2024/01/26 08:07:28;;;;;;;22.98;6.53;;;;;;;;;;5073049;28;20044;-73
2024/01/26 08:09:55;;;;;;;16.80;6.53;;;;;;;;;;5072203;28;20461;-70
2024/01/26 08:12:21;;;;;;;14.98;5.70;;;;;;;;;;5071885;28;20047;-71
2024/01/26 08:14:47;;;;;;;15.23;6.28;;;;;;;;;;5074741;28;20101;-70
2024/01/26 08:17:13;;;;;;;14.85;6.30;;;;;;;;;;5089330;28;20043;-72
2024/01/26 08:19:39;;;;;;;19.38;6.13;;;;;;;;;;5075709;28;20035;-70
2024/01/26 08:22:05;;;;;;;18.63;5.13;;;;;;;;;;5071061;28;20059;-70
2024/01/26 08:24:32;;;;;;;21.42;5.75;;;;;;;;;;5069978;28;20141;-70
2024/01/26 08:26:58;;;;;;;19.98;6.03;;;;;;;;;;5071253;28;20029;-70
2024/01/26 08:29:26;;;;;;;21.65;5.22;;;;;;;;;;5071100;28;20370;-70
2024/01/26 08:31:53;;;;;;;25.20;5.35;;;;;;;;;;5074491;28;20115;-70
2024/01/26 08:34:19;;;;;;;20.75;4.85;;;;;;;;;;5073557;28;20330;-70
2024/01/26 08:36:46;;;;;;;21.92;4.57;;;;;;;;;;5081037;28;20046;-70
2024/01/26 08:39:12;;;;;;;20.73;4.75;;;;;;;;;;5059964;28;20037;-70
2024/01/26 08:41:43;;;;;;;25.23;5.57;;;;;;;;;;5078087;28;20055;-70
2024/01/26 08:44:10;;;;;;;25.40;4.85;;;;;;;;;;5067047;28;20055;-71
2024/01/26 08:46:38;;;;;;;18.15;3.50;;;;;;;;;;5070686;28;20072;-71
2024/01/26 08:49:06;;;;;;;15.40;3.63;;;;;;;;;;5086627;28;20072;-71
2024/01/26 08:51:32;;;;;;;13.55;2.58;;;;;;;;;;5054672;28;20044;-72
2024/01/26 08:53:58;;;;;;;16.80;2.75;;;;;;;;;;5075027;28;20037;-71
2024/01/26 08:56:25;;;;;;;14.15;3.05;;;;;;;;;;5072648;28;20040;-71
2024/01/26 08:58:51;;;;;;;13.75;2.20;;;;;;;;;;5078990;28;20036;-71
2024/01/26 09:01:19;;;;;;;21.55;2.90;;;;;;;;;;5070690;28;20076;-71
2024/01/26 09:03:45;;;;;;;14.40;2.88;;;;;;;;;;5076611;28;20127;-71
2024/01/26 09:06:11;;;;;;;13.90;2.53;;;;;;;;;;5080890;28;20047;-71
2024/01/26 09:08:37;;;;;;;18.15;2.80;;;;;;;;;;5080629;28;20036;-71
2024/01/26 09:11:04;;;;;;;12.30;2.05;;;;;;;;;;5089541;28;20036;-71
2024/01/26 09:13:30;;;;;;;15.88;2.67;;;;;;;;;;5083933;28;20043;-71
2024/01/26 09:15:56;;;;;;;14.00;2.30;;;;;;;;;;5068103;28;20045;-71
2024/01/26 09:18:23;;;;;;;15.93;2.67;;;9.20;99.90;;;;;;5090687;28;20044;-71
2024/01/26 09:20:49;;;;;;;22.73;3.22;;;;;;;;;;5094284;28;20056;-71
2024/01/26 09:23:16;;;;;;;14.95;2.72;;;;;;;;;;5094448;28;20051;-71
2024/01/26 09:25:42;;;;;;;16.92;2.30;;;9.30;99.90;;;;;;5077482;28;20036;-71
2024/01/26 09:28:08;;;;;;;23.90;3.25;;;;;;;;;;5077401;28;20550;-72
2024/01/26 09:30:34;;;;;;;14.75;2.42;;;;;;;;;;5080025;28;20094;-70
2024/01/26 09:33:01;;;;;;;13.60;3.08;;;;;;;;;;5073928;28;20044;-70
2024/01/26 09:35:27;;;;;;;18.75;2.70;;;;;;;;;;5073950;28;20041;-70
2024/01/26 09:37:53;;;;;;;23.58;4.18;;;;;;;;;;5073893;28;20503;-70
2024/01/26 09:40:19;;;;;;;15.38;2.65;;;;;;;;;;5074055;28;20036;-70
2024/01/26 09:42:45;;;;;;;18.65;3.00;;;;;;;;;;5074031;28;20124;-74
2024/01/26 09:45:11;;;;;;;19.23;3.17;;;;;;;;;;5073868;28;20051;-70
2024/01/26 09:47:40;;;;;;;16.25;3.28;;;9.10;99.90;;;;;;5073658;28;20442;-70
2024/01/26 09:50:06;;;;;;;21.70;4.03;;;;;;;;;;5073598;28;20051;-69
2024/01/26 09:52:36;;;;;;;25.67;3.45;;;;;;;;;;5073652;28;20048;-70
2024/01/26 09:55:03;;;;;;;76.38;4.95;;;;;;;;;;5073542;28;20341;-70
2024/01/26 09:57:31;;;;;;;21.52;3.47;;;9.10;99.90;;;;;;5073314;28;20047;-70
2024/01/26 09:59:57;;;;;;;16.73;3.03;;;;;;;;;;5061831;28;20481;-69
2024/01/26 10:02:23;;;;;;;24.25;3.33;;;;;;;;;;5080241;28;20033;-69
2024/01/26 10:04:49;;;;;;;21.35;3.63;;;;;;;;;;5073527;28;20060;-71
2024/01/26 10:07:16;;;;;;;19.80;3.00;;;;;;;;;;5073611;28;20477;-69
2024/01/26 10:09:42;;;;;;;24.20;4.80;;;;;;;;;;5085487;28;20395;-69
2024/01/26 10:12:10;;;;;;;23.05;4.32;;;;;;;;;;5079497;28;20035;-70
2024/01/26 10:14:36;;;;;;;19.70;3.55;;;;;;;;;;5074857;28;20044;-69
2024/01/26 10:17:02;;;;;;;15.18;3.85;;;;;;;;;;5073355;28;20044;-69
2024/01/26 10:19:30;;;;;;;22.95;3.28;;;;;;;;;;5077978;28;20040;-68
2024/01/26 10:21:56;;;;;;;24.55;3.30;;;8.90;99.90;;;;;;5074086;28;20500;-68
2024/01/26 10:24:23;;;;;;;16.20;2.80;;;;;;;;;;5074214;28;20085;-70
2024/01/26 10:26:58;;;;;;;16.38;3.30;;;9.00;99.90;;;;;;5080559;28;20094;-69
2024/01/26 10:29:24;;;;;;;17.27;2.83;;;;;;;;;;5078903;28;20040;-69
2024/01/26 10:31:51;;;;;;;15.68;3.03;;;;;;;;;;5088547;28;20059;-69
2024/01/26 10:34:18;;;;;;;18.15;3.72;;;;;;;;;;5081094;28;20036;-69
2024/01/26 10:36:45;;;;;;;20.92;3.15;;;;;;;;;;5088227;28;20040;-69
2024/01/26 10:39:14;;;;;;;19.77;3.35;;;;;;;;;;5083058;28;20077;-69
2024/01/26 10:41:42;;;;;;;23.40;3.55;;;;;;;;;;5072297;28;20121;-69
2024/01/26 10:44:09;;;;;;;13.18;3.85;;;9.00;99.90;;;;;;5072191;28;20040;-69
2024/01/26 10:46:37;;;;;;;25.10;3.38;;;;;;;;;;5072639;28;20044;-69
2024/01/26 10:49:03;;;;;;;21.02;3.50;;;;;;;;;;5077060;28;20047;-70
2024/01/26 10:51:31;;;;;;;17.27;2.78;;;;;;;;;;5091734;28;20051;-70
2024/01/26 10:53:58;;;;;;;24.35;3.65;;;;;;;;;;5072203;28;20054;-70
2024/01/26 10:56:25;;;;;;;19.38;2.83;;;;;;;;;;5079603;28;20427;-70
2024/01/26 10:58:51;;;;;;;20.00;3.65;;;;;;;;;;5091052;28;20072;-69
2024/01/26 11:01:17;;;;;;;17.13;3.30;;;;;;;;;;5058685;28;20037;-69
2024/01/26 11:03:43;;;;;;;18.55;3.97;;;9.10;99.90;;;;;;5072081;28;20381;-69
2024/01/26 11:06:12;;;;;;;13.85;3.15;;;;;;;;;;5077909;28;20040;-69
2024/01/26 11:08:38;;;;;;;16.98;3.65;;;;;;;;;;5071666;28;20532;-69
2024/01/26 11:11:04;;;;;;;18.58;3.28;;;;;;;;;;5072684;28;20380;-69
2024/01/26 11:13:36;;;;;;;19.95;2.95;;;;;;;;;;5071933;28;20040;-69
2024/01/26 11:16:06;;;;;;;17.77;2.90;;;;;;;;;;5071643;28;20116;-69
2024/01/26 11:18:34;;;;;;;24.67;3.20;;;;;;;;;;5071857;28;20047;-69
2024/01/26 11:21:04;;;;;;;12.27;2.22;;;;;;;;;;5071368;28;20060;-69
2024/01/26 11:23:44;;;;;;;16.15;3.00;;;8.90;99.90;;;;;;5063800;28;20059;-69
2024/01/26 11:26:17;;;;;;;12.23;2.67;;;;;;;;;;5059339;28;20453;-69
2024/01/26 11:28:45;;;;;;;;;;;;;;;;;;5082773;28;20036;-69
2024/01/26 11:31:11;;;;;;;10.85;2.40;;;;;;;;;;5092197;28;19965;-69
2024/01/26 11:33:39;;;;;;;15.45;2.80;;;8.70;99.90;;;;;;5092341;28;20036;-69
2024/01/26 11:36:08;;;;;;;20.67;3.42;;;;;;;;;;5085999;28;20059;-69
2024/01/26 11:38:38;;;;;;;;;;;;;;;;;;5054402;28;20093;-69
2024/01/26 11:41:04;;;;;;;20.67;3.80;;;;;;;;;;5068843;28;19924;-69
2024/01/26 11:43:30;;;;;;;22.77;3.35;;;;;;;;;;5053967;28;20041;-70
2024/01/26 11:45:56;;;;;;;27.67;3.78;;;;;;;;;;5071612;28;20076;-69
2024/01/26 11:48:22;;;;;;;23.23;4.03;;;;;;;;;;5070960;28;20044;-69
2024/01/26 11:50:49;;;;;;;18.15;3.28;;;;;;;;;;5054614;28;20043;-69
2024/01/26 11:53:16;;;;;;;24.35;3.72;;;;;;;;;;5071762;28;20041;-69
2024/01/26 11:55:43;;;;;;;25.45;4.78;;;8.90;99.90;;;;;;5054579;28;20040;-69
2024/01/26 11:58:12;;;;;;;22.70;3.47;;;;;;;;;;5087674;28;20037;-69
2024/01/26 12:00:38;;;;;;;23.48;4.03;;;;;;;;;;5071211;28;20068;-69
2024/01/26 12:03:09;;;;;;;25.45;4.18;;;8.90;99.90;;;;;;5070892;28;20055;-70
2024/01/26 12:05:36;;;;;;;23.70;3.50;;;8.80;99.90;;;;;;5054974;28;20140;-69
2024/01/26 12:08:04;;;;;;;18.15;3.40;;;;;;;;;;5071644;28;20044;-69
2024/01/26 12:10:31;;;;;;;20.77;4.22;;;;;;;;;;5070890;28;20059;-69
2024/01/26 12:12:57;;;;;;;24.08;3.78;;;;;;;;;;5038072;28;20319;-69
2024/01/26 12:15:31;;;;;;;21.92;3.40;;;;;;;;;;5071244;28;20052;-69
2024/01/26 12:18:00;;;;;;;21.38;3.55;;;8.20;99.90;;;;;;5070788;28;20489;-69
2024/01/26 12:20:26;;;;;;;24.50;3.42;;;;;;;;;;5069180;28;20106;-70
2024/01/26 12:22:56;;;;;;;18.40;3.25;;;;;;;;;;5085312;28;20048;-69
2024/01/26 12:25:27;;;;;;;22.05;3.55;;;;;;;;;;5076641;28;20480;-69
2024/01/26 12:27:53;;;;;;;18.90;2.78;;;;;;;;;;5075894;28;20056;-69
2024/01/26 12:30:20;;;;;;;17.58;3.15;;;;;;;;;;5072347;28;20118;-69
2024/01/26 12:32:46;;;;;;;19.77;3.70;;;;;;;;;;5073270;28;20043;-69
2024/01/26 12:35:12;;;;;;;17.35;3.08;;;;;;;;;;5076343;28;20043;-69
2024/01/26 12:37:38;;;;;;;13.27;2.70;;;;;;;;;;5071747;28;20037;-69
2024/01/26 12:40:06;;;;;;;15.55;2.85;;;;;;;;;;5077144;28;20032;-68
2024/01/26 12:42:32;;;;;;;16.45;2.70;;;;;;;;;;5075391;28;20652;-69
2024/01/26 12:44:59;;;;;;;15.63;2.65;;;;;;;;;;5075761;28;20167;-68
2024/01/26 12:47:25;;;;;;;14.18;2.15;;;;;;;;;;5075129;28;20115;-69
2024/01/26 12:49:51;;;;;;;12.40;2.22;;;;;;;;;;5081369;28;20032;-69
2024/01/26 12:52:18;;;;;;;11.07;2.10;;;;;;;;;;5093030;28;20028;-69
2024/01/26 12:54:45;;;;;;;13.40;2.22;;;;;;;;;;5081793;28;20040;-69
2024/01/26 12:57:11;;;;;;;10.90;2.38;;;;;;;;;;5088142;28;20491;-69
2024/01/26 12:59:39;;;;;;;12.57;2.60;;;;;;;;;;5074798;28;20115;-69
2024/01/26 13:02:05;;;;;;;10.82;2.03;;;;;;;;;;5089928;28;20545;-68
2024/01/26 13:04:31;;;;;;;8.30;1.70;;;;;;;;;;5088378;28;20379;-69
2024/01/26 13:06:57;;;;;;;11.13;2.53;;;;;;;;;;5075569;28;20074;-69
2024/01/26 13:09:23;;;;;;;10.40;1.85;;;;;;;;;;5075544;28;20044;-69
2024/01/26 13:11:50;;;;;;;8.23;1.80;;;;;;;;;;5073737;28;20551;-69
2024/01/26 13:14:16;;;;;;;7.43;2.13;;;;;;;;;;5087138;28;20040;-69
2024/01/26 13:16:42;;;;;;;23.27;3.72;;;;;;;;;;5083169;28;20083;-69
2024/01/26 13:19:09;;;;;;;10.48;2.97;;;;;;;;;;5057629;28;20775;-70
2024/01/26 13:21:35;;;;;;;13.65;2.55;;;;;;;;;;5076816;28;20048;-69
2024/01/26 13:24:01;;;;;;;10.98;2.30;;;;;;;;;;5080206;28;20071;-69
2024/01/26 13:26:27;;;;;;;15.48;3.40;;;;;;;;;;5084134;28;20032;-69
2024/01/26 13:28:53;;;;;;;17.42;2.85;;;;;;;;;;5074165;28;20406;-69
2024/01/26 13:31:20;;;;;;;12.27;2.10;;;;;;;;;;5079921;28;20396;-69
2024/01/26 13:33:46;;;;;;;14.95;2.35;;;;;;;;;;5091134;28;20120;-70
2024/01/26 13:36:12;;;;;;;15.32;2.53;;;;;;;;;;5087514;28;20051;-70
2024/01/26 13:38:38;;;;;;;11.40;2.15;;;;;;;;;;5074068;28;20036;-70
2024/01/26 13:41:04;;;;;;;13.40;2.10;;;8.30;99.90;;;;;;5091757;28;20102;-69
2024/01/26 13:43:30;;;;;;;14.55;2.47;;;;;;;;;;5057273;28;20121;-70
2024/01/26 13:46:00;;;;;;;14.38;3.47;;;8.70;99.90;;;;;;5085937;28;20036;-70
2024/01/26 13:48:26;;;;;;;12.98;2.65;;;;;;;;;;5076153;28;20112;-70
2024/01/26 13:50:52;;;;;;;17.42;2.80;;;;;;;;;;5087335;28;20093;-69
2024/01/26 13:53:21;;;;;;;12.43;2.53;;;;;;;;;;5085628;28;20847;-70
2024/01/26 13:55:50;;;;;;;14.23;2.72;;;8.30;99.90;;;;;;5087162;28;20093;-69
2024/01/26 13:58:16;;;;;;;14.82;2.92;;;;;;;;;;5074737;28;20044;-69
2024/01/26 14:00:43;;;;;;;14.75;2.42;;;;;;;;;;5074292;28;20037;-69
2024/01/26 14:03:10;;;;;;;13.80;2.80;;;;;;;;;;5078156;28;20119;-68
2024/01/26 14:05:37;;;;;;;11.73;2.70;;;;;;;;;;5091661;28;20047;-69
2024/01/26 14:08:06;;;;;;;23.23;6.32;;;;;;;;;;5081548;28;20037;-69
2024/01/26 14:10:33;;;;;;;13.85;3.20;;;;;;;;;;5057635;28;20482;-69
2024/01/26 14:12:59;;;;;;;17.92;3.58;;;;;;;;;;5077276;28;20045;-68